Time;durP1;ratioP1;P1;durP2;ratioP2;P2;SDS_P1;SDS_P2;PMS_P1;PMS_P2;Temp;Humidity;BMP_temperature;BMP_pressure;BME280_temperature;BME280_humidity;BME280_pressure;Samples;Min_cycle;Max_cycle;Signal;HPM_P1;HPM_P2
2023/03/19 00:00:35;;;;;;;2.65;1.40;;;12.50;99.90;;;12.71;100.00;100596.19;5174958;28;20045;-71
2023/03/19 00:03:07;;;;;;;3.13;1.70;;;12.50;99.90;;;12.75;100.00;100597.13;5170452;28;20040;-71
2023/03/19 00:05:40;;;;;;;2.65;1.52;;;12.50;99.90;;;12.78;100.00;100605.06;5182846;28;20406;-72
2023/03/19 00:08:12;;;;;;;3.13;1.55;;;12.60;99.90;;;12.82;100.00;100603.38;5177813;28;20466;-70
2023/03/19 00:10:44;;;;;;;4.50;1.92;;;12.60;99.90;;;12.81;100.00;100602.50;5180584;28;20582;-71
2023/03/19 00:13:18;;;;;;;3.53;2.05;;;12.60;99.90;;;12.81;100.00;100586.81;5179096;28;20054;-72
2023/03/19 00:15:50;;;;;;;4.60;2.53;;;12.60;99.90;;;12.80;100.00;100595.50;5172073;28;20045;-71
2023/03/19 00:18:22;;;;;;;7.57;3.40;;;12.60;99.90;;;12.71;100.00;100590.06;5171814;28;20101;-72
2023/03/19 00:20:54;;;;;;;6.45;2.92;;;12.60;99.90;;;12.63;100.00;100587.28;5164342;28;20065;-71
2023/03/19 00:23:26;;;;;;;4.65;2.63;;;12.60;99.90;;;12.66;100.00;100589.97;5164075;28;20145;-71
2023/03/19 00:25:58;;;;;;;3.85;2.33;;;12.60;99.90;;;12.65;100.00;100595.13;5182966;28;20042;-72
2023/03/19 00:28:34;;;;;;;4.13;2.25;;;12.60;99.90;;;12.65;100.00;100590.81;5174463;28;20052;-71
2023/03/19 00:31:12;;;;;;;4.97;2.60;;;12.50;99.90;;;12.64;100.00;100588.16;5170725;28;20039;-71
2023/03/19 00:33:45;;;;;;;5.43;2.50;;;12.50;99.90;;;12.65;100.00;100589.91;5178787;28;20507;-71
2023/03/19 00:36:17;;;;;;;3.63;2.03;;;12.50;99.90;;;12.65;100.00;100584.69;5171148;28;20418;-72
2023/03/19 00:38:50;;;;;;;4.65;2.13;;;12.50;99.90;;;12.64;100.00;100585.53;5163958;28;20046;-71
2023/03/19 00:41:22;;;;;;;2.88;1.85;;;12.50;99.90;;;12.60;100.00;100586.34;5178766;28;20487;-71
2023/03/19 00:43:57;;;;;;;4.05;2.00;;;12.40;99.90;;;12.57;100.00;100579.28;5163914;28;20038;-72
2023/03/19 00:46:29;;;;;;;2.97;1.88;;;12.40;99.90;;;12.54;100.00;100587.06;5171501;28;20048;-72
2023/03/19 00:49:02;;;;;;;4.03;2.03;;;12.40;99.90;;;12.53;100.00;100587.91;5183690;28;20590;-71
2023/03/19 00:51:34;;;;;;;4.63;2.00;;;12.40;99.90;;;12.53;100.00;100585.31;5182016;28;20045;-71
2023/03/19 00:54:06;;;;;;;3.35;2.00;;;12.40;99.90;;;12.53;100.00;100585.31;5170835;28;20043;-71
2023/03/19 00:56:38;;;;;;;4.68;2.30;;;12.40;99.90;;;12.52;100.00;100588.78;5163879;28;20050;-72
2023/03/19 00:59:12;;;;;;;3.88;2.00;;;12.40;99.90;;;12.53;100.00;100587.91;5171864;28;20042;-72
2023/03/19 01:01:45;;;;;;;4.65;2.00;;;12.30;99.90;;;12.51;100.00;100581.75;5163505;28;20092;-72
2023/03/19 01:04:17;;;;;;;3.25;1.88;;;12.30;99.90;;;12.48;100.00;100584.31;5163211;28;20129;-72
2023/03/19 01:06:50;;;;;;;4.45;2.00;;;12.30;99.90;;;12.44;100.00;100583.34;5178805;28;20042;-71
2023/03/19 01:09:22;;;;;;;3.08;2.03;;;12.30;99.90;;;12.41;100.00;100575.44;5162240;28;20085;-71
2023/03/19 01:11:54;;;;;;;2.63;1.85;;;12.30;99.90;;;12.38;100.00;100582.31;5194273;28;20058;-72
2023/03/19 01:14:28;;;;;;;4.15;1.92;;;12.20;99.90;;;12.35;100.00;100579.63;5178358;28;20523;-71
2023/03/19 01:17:00;;;;;;;4.40;2.15;;;12.20;99.90;;;12.30;100.00;100581.25;5169372;28;20054;-70
2023/03/19 01:19:33;;;;;;;2.65;1.60;;;12.10;99.90;;;12.25;100.00;100577.63;5170901;28;20549;-71
2023/03/19 01:22:05;;;;;;;3.47;1.83;;;12.10;99.90;;;12.19;100.00;100584.50;5182597;28;20559;-71
2023/03/19 01:24:40;;;;;;;3.65;1.90;;;12.10;99.90;;;12.15;100.00;100582.63;5188614;28;20058;-71
2023/03/19 01:27:12;;;;;;;3.65;1.80;;;12.00;99.90;;;12.13;100.00;100599.13;5162433;28;20197;-70
2023/03/19 01:29:45;;;;;;;3.70;1.73;;;12.00;99.90;;;12.09;100.00;100595.53;5178377;28;20512;-72
2023/03/19 01:32:24;;;;;;;2.78;1.80;;;11.90;99.90;;;12.07;100.00;100596.38;5178057;28;20042;-71
2023/03/19 01:35:19;;;;;;;3.70;1.92;;;11.90;99.90;;;12.06;100.00;100591.97;5160632;28;20054;-72
2023/03/19 01:37:52;;;;;;;4.00;2.03;;;11.90;99.90;;;12.05;100.00;100595.41;5179000;28;20049;-72
2023/03/19 01:40:25;;;;;;;3.92;2.03;;;11.90;99.90;;;12.04;100.00;100588.44;5177744;28;20053;-72
2023/03/19 01:43:16;;;;;;;2.90;1.73;;;11.90;99.90;;;12.03;100.00;100589.28;5162300;28;20125;-71
2023/03/19 01:45:58;;;;;;;4.13;2.15;;;11.80;99.90;;;12.00;100.00;100591.81;5163174;28;20380;-72
2023/03/19 01:48:50;;;;;;;3.65;1.98;;;11.90;99.90;;;11.95;100.00;100589.09;5178029;28;20042;-72
2023/03/19 01:51:28;;;;;;;3.13;1.67;;;11.80;99.90;;;11.88;100.00;100582.81;5162024;28;20105;-72
2023/03/19 01:54:24;;;;;;;2.38;1.60;;;11.80;99.90;;;11.83;100.00;100581.81;5186038;28;20108;-72
2023/03/19 01:57:24;;;;;;;3.33;2.03;;;11.70;99.90;;;11.76;100.00;100577.25;5170276;28;20136;-71
2023/03/19 02:00:18;;;;;;;2.72;1.63;;;11.60;99.90;;;11.73;100.00;100578.88;5188269;28;20046;-71
2023/03/19 02:02:57;;;;;;;3.00;1.63;;;11.60;99.90;;;11.72;100.00;100584.94;5175548;28;20112;-71
2023/03/19 02:05:53;;;;;;;3.53;1.70;;;11.50;99.90;;;11.63;100.00;100581.25;5167245;28;20462;-72
2023/03/19 02:08:28;;;;;;;2.17;1.42;;;11.50;99.90;;;11.59;100.00;100584.59;5181893;28;20042;-72
2023/03/19 02:11:01;;;;;;;4.05;1.80;;;11.50;99.90;;;11.56;100.00;100589.75;5165878;28;20046;-72
2023/03/19 02:13:35;;;;;;;3.78;1.80;;;11.40;99.90;;;11.52;100.00;100587.00;5166768;28;20476;-72
2023/03/19 02:16:08;;;;;;;3.00;1.70;;;11.40;99.90;;;11.48;100.00;100586.06;5178764;28;20311;-72
2023/03/19 02:18:42;;;;;;;3.22;1.52;;;11.40;99.90;;;11.46;100.00;100581.63;5184023;28;20054;-72
2023/03/19 02:21:17;;;;;;;3.90;1.75;;;11.30;99.90;;;11.42;100.00;100585.88;5167332;28;20039;-71
2023/03/19 02:24:00;;;;;;;2.22;1.40;;;11.30;99.90;;;11.39;100.00;100586.66;5168336;28;20038;-71
2023/03/19 02:27:00;;;;;;;2.85;1.40;;;11.20;99.90;;;11.37;100.00;100577.03;5164581;28;20062;-72
2023/03/19 02:29:33;;;;;;;;;;;11.20;99.90;;;11.37;100.00;100588.38;5184767;28;20056;-72
2023/03/19 02:32:06;;;;;;;3.65;1.70;;;11.20;99.90;;;11.40;100.00;100579.72;5178123;28;19984;-71
2023/03/19 02:34:42;;;;;;;3.17;1.52;;;11.20;99.90;;;11.41;100.00;100574.56;5191831;28;20510;-72
2023/03/19 02:37:21;;;;;;;2.47;1.60;;;11.30;99.90;;;11.44;100.00;100573.75;5181871;28;20503;-71
2023/03/19 02:39:59;;;;;;;2.95;1.65;;;11.30;99.90;;;11.44;100.00;100581.59;5184398;28;20375;-72
2023/03/19 02:42:32;;;;;;;2.83;1.35;;;11.30;99.90;;;11.44;100.00;100571.16;5185044;28;20042;-71
2023/03/19 02:45:06;;;;;;;2.65;1.33;;;11.30;99.90;;;11.47;100.00;100573.81;5166246;28;20069;-72
2023/03/19 02:47:38;;;;;;;2.03;1.42;;;11.30;99.90;;;11.51;100.00;100578.31;5164910;28;20073;-72
2023/03/19 02:50:12;;;;;;;2.30;1.42;;;11.30;99.90;;;11.59;100.00;100583.72;5166196;28;20049;-71
2023/03/19 02:52:44;;;;;;;2.85;1.52;;;11.40;99.90;;;11.65;100.00;100590.00;5180595;28;20052;-72
2023/03/19 02:55:17;;;;;;;2.72;1.52;;;11.50;99.90;;;11.72;100.00;100584.94;5175045;28;20462;-72
2023/03/19 02:57:51;;;;;;;2.05;1.30;;;11.50;99.90;;;11.77;100.00;100584.22;5179499;28;20061;-71
2023/03/19 03:00:24;;;;;;;2.92;1.50;;;11.60;99.90;;;11.83;100.00;100583.53;5179829;28;20064;-73
2023/03/19 03:02:57;;;;;;;1.80;1.50;;;11.60;99.90;;;11.88;100.00;100584.56;5165652;28;20450;-71
2023/03/19 03:05:29;;;;;;;1.90;1.33;;;11.70;99.90;;;11.91;100.00;100585.50;5181000;28;20057;-72
2023/03/19 03:08:03;;;;;;;1.80;1.35;;;11.70;99.90;;;11.94;100.00;100576.88;5164818;28;20527;-72
2023/03/19 03:10:36;;;;;;;3.50;1.67;;;11.80;99.90;;;11.95;100.00;100581.25;5180603;28;20053;-72
2023/03/19 03:13:10;;;;;;;3.47;1.40;;;11.80;99.90;;;11.99;100.00;100583.09;5178096;28;20144;-72
2023/03/19 03:15:42;;;;;;;3.97;1.50;;;11.80;99.90;;;11.99;100.00;100588.31;5175789;28;20046;-72
2023/03/19 03:18:14;;;;;;;1.85;1.30;;;11.80;99.90;;;11.99;100.00;100584.81;5180572;28;20042;-72
2023/03/19 03:20:47;;;;;;;4.03;1.48;;;11.80;99.90;;;12.00;100.00;100597.94;5178571;28;20376;-71
2023/03/19 03:23:20;;;;;;;2.50;1.60;;;11.80;99.90;;;12.01;100.00;100594.47;5170911;28;20045;-72
2023/03/19 03:25:52;;;;;;;1.50;1.30;;;11.80;99.90;;;12.04;100.00;100593.66;5174600;28;20042;-72
2023/03/19 03:28:26;;;;;;;2.33;1.30;;;11.80;99.90;;;12.06;100.00;100598.09;5165645;28;20074;-71
2023/03/19 03:30:59;;;;;;;2.72;1.27;;;11.90;99.90;;;12.07;100.00;100597.25;5168848;28;20410;-71
2023/03/19 03:33:32;;;;;;;2.15;1.13;;;11.90;99.90;;;12.07;100.00;100599.84;5184643;28;20042;-72
2023/03/19 03:36:04;;;;;;;2.83;1.30;;;11.90;99.90;;;12.09;100.00;100602.50;5175937;28;20402;-72
2023/03/19 03:38:36;;;;;;;2.78;1.40;;;11.90;99.90;;;12.11;100.00;100596.47;5177152;28;20045;-72
2023/03/19 03:41:08;;;;;;;1.75;1.38;;;11.90;99.90;;;12.15;100.00;100598.31;5172559;28;20080;-72
2023/03/19 03:43:43;;;;;;;3.42;1.80;;;11.90;99.90;;;12.17;100.00;100596.63;5188366;28;20530;-72
2023/03/19 03:46:16;;;;;;;2.63;1.40;;;12.00;99.90;;;12.21;100.00;100593.25;5165261;28;20049;-72
2023/03/19 03:48:51;;;;;;;2.80;1.50;;;12.00;99.90;;;12.23;100.00;100607.22;5181917;28;20475;-72
2023/03/19 03:51:23;;;;;;;2.70;1.80;;;12.10;99.90;;;12.27;100.00;100615.16;5178378;28;20117;-71
2023/03/19 03:53:55;;;;;;;2.20;1.45;;;12.10;99.90;;;12.30;100.00;100604.75;5172621;28;20038;-70
2023/03/19 03:56:27;;;;;;;1.85;1.30;;;12.10;99.90;;;12.32;100.00;100611.78;5164717;28;20675;-71
2023/03/19 03:59:01;;;;;;;2.35;1.20;;;12.10;99.90;;;12.32;100.00;100609.16;5183013;28;20065;-72
2023/03/19 04:01:33;;;;;;;2.40;1.30;;;12.20;99.90;;;12.33;100.00;100621.44;5192100;28;20056;-71
2023/03/19 04:04:06;;;;;;;1.95;1.38;;;12.20;99.90;;;12.36;100.00;100618.00;5167339;28;20065;-71
2023/03/19 04:06:38;;;;;;;2.35;1.30;;;12.20;99.90;;;12.36;100.00;100618.88;5182975;28;20060;-71
2023/03/19 04:09:34;;;;;;;1.92;1.13;;;12.20;99.90;;;12.39;100.00;100615.47;5153929;28;20057;-72
2023/03/19 04:12:07;;;;;;;2.65;1.25;;;12.20;99.90;;;12.40;100.00;100622.47;5187586;28;20575;-71
2023/03/19 04:14:40;;;;;;;4.85;1.50;;;12.30;99.90;;;12.40;100.00;100609.38;5178937;28;20089;-72
2023/03/19 04:17:12;;;;;;;2.85;1.40;;;12.30;99.90;;;12.39;100.00;100624.19;5192717;28;20099;-72
2023/03/19 04:19:45;;;;;;;2.10;1.33;;;12.30;99.90;;;12.40;100.00;100622.47;5166711;28;20047;-72
2023/03/19 04:22:18;;;;;;;3.25;1.55;;;12.30;99.90;;;12.40;100.00;100625.06;5182344;28;20045;-71
2023/03/19 04:24:50;;;;;;;2.30;1.40;;;12.30;99.90;;;12.39;100.00;100628.53;5165308;28;20277;-71
2023/03/19 04:27:23;;;;;;;1.50;1.20;;;12.30;99.90;;;12.39;100.00;100636.38;5172340;28;20069;-72
2023/03/19 04:29:56;;;;;;;1.77;1.00;;;12.30;99.90;;;12.38;100.00;100638.06;5164106;28;20050;-71
2023/03/19 04:32:29;;;;;;;2.40;1.10;;;12.20;99.90;;;12.37;100.00;100635.44;5179462;28;20117;-71
2023/03/19 04:35:03;;;;;;;1.70;1.20;;;12.20;99.90;;;12.35;100.00;100631.91;5178664;28;20038;-70
2023/03/19 04:37:36;;;;;;;1.80;1.05;;;12.20;99.90;;;12.33;100.00;100633.59;5172245;28;20038;-72
2023/03/19 04:40:12;;;;;;;2.45;1.10;;;12.20;99.90;;;12.32;100.00;100637.03;5179264;28;20229;-71
2023/03/19 04:42:46;;;;;;;1.73;1.20;;;12.20;99.90;;;12.30;100.00;100636.13;5186830;28;20059;-72
2023/03/19 04:45:31;;;;;;;2.28;0.93;;;12.20;99.90;;;12.29;100.00;100634.38;5178760;28;20511;-72
2023/03/19 04:48:05;;;;;;;2.05;1.02;;;12.10;99.90;;;12.28;100.00;100630.00;5178829;28;20093;-72
2023/03/19 04:50:41;;;;;;;1.98;1.30;;;12.10;99.90;;;12.24;100.00;100626.41;5179110;28;20109;-71
2023/03/19 04:53:14;;;;;;;3.25;1.63;;;12.10;99.90;;;12.26;100.00;100636.88;5182599;28;20072;-73
2023/03/19 04:55:47;;;;;;;1.45;1.05;;;12.10;99.90;;;12.23;100.00;100635.97;5178396;28;20403;-71
2023/03/19 04:58:24;;;;;;;1.55;1.20;;;12.10;99.90;;;12.23;100.00;100637.69;5176891;28;20095;-73
2023/03/19 05:01:06;;;;;;;2.33;1.50;;;12.10;99.90;;;12.21;100.00;100655.97;5170732;28;20057;-71
2023/03/19 05:04:01;;;;;;;2.08;1.00;;;12.10;99.90;;;12.19;100.00;100656.75;5171338;28;20041;-73
2023/03/19 05:06:35;;;;;;;1.52;0.90;;;12.10;99.90;;;12.15;100.00;100650.56;5162167;28;20530;-71
2023/03/19 05:09:08;;;;;;;2.05;1.30;;;12.00;99.90;;;12.09;100.00;100650.41;5171901;28;20500;-71
2023/03/19 05:11:40;;;;;;;1.70;1.20;;;12.00;99.90;;;12.04;100.00;100657.25;5170243;28;20057;-72
2023/03/19 05:14:20;;;;;;;1.80;1.10;;;11.90;99.90;;;12.02;100.00;100652.84;5175486;28;20037;-71
2023/03/19 05:17:14;;;;;;;1.45;1.20;;;11.90;99.90;;;11.99;100.00;100645.78;5170314;28;20054;-71
2023/03/19 05:20:08;;;;;;;1.73;1.15;;;11.80;99.90;;;11.98;100.00;100657.06;5179006;28;20156;-72
2023/03/19 05:22:41;;;;;;;;;;;11.80;99.90;;;11.92;100.00;100654.28;5178250;28;20088;-72
2023/03/19 05:25:13;;;;;;;1.23;1.00;;;11.80;99.90;;;11.89;100.00;100662.06;5163309;28;19922;-73
2023/03/19 05:27:47;;;;;;;1.73;1.00;;;11.70;99.90;;;11.86;100.00;100662.84;5163070;28;20046;-71
2023/03/19 05:30:26;;;;;;;2.03;1.15;;;11.70;99.90;;;11.86;100.00;100661.97;5182120;28;20053;-72
2023/03/19 05:33:06;;;;;;;1.00;0.90;;;11.70;99.90;;;11.82;100.00;100665.34;5171479;28;20050;-72
2023/03/19 05:35:41;;;;;;;2.45;1.30;;;11.70;99.90;;;11.80;100.00;100666.97;5178232;28;20052;-71
2023/03/19 05:38:36;;;;;;;3.00;1.15;;;11.70;99.90;;;11.80;100.00;100665.28;5168218;28;20503;-71
2023/03/19 05:41:14;;;;;;;1.38;0.90;;;11.70;99.90;;;11.80;100.00;100673.13;5174828;28;20506;-72
2023/03/19 05:44:00;;;;;;;1.17;0.82;;;11.70;99.90;;;11.81;100.00;100674.03;5170798;28;20038;-73
2023/03/19 05:46:47;;;;;;;1.38;0.93;;;11.70;99.90;;;11.82;100.00;100670.56;5178350;28;20092;-72
2023/03/19 05:49:23;;;;;;;1.38;1.23;;;11.60;99.90;;;11.83;100.00;100674.94;5190290;28;20463;-71
2023/03/19 05:51:55;;;;;;;3.22;0.90;;;11.70;99.90;;;11.85;100.00;100678.47;5179742;28;20046;-73
2023/03/19 05:54:29;;;;;;;1.77;1.20;;;11.70;99.90;;;11.85;100.00;100675.88;5169468;28;20034;-71
2023/03/19 05:57:12;;;;;;;1.83;0.93;;;11.70;99.90;;;11.83;100.00;100686.28;5185813;28;20142;-71
2023/03/19 05:59:54;;;;;;;0.80;0.80;;;11.70;99.90;;;11.82;100.00;100681.91;5170917;28;20046;-72
2023/03/19 06:02:39;;;;;;;2.83;0.85;;;11.70;99.90;;;11.83;100.00;100674.94;5163070;28;20097;-72
2023/03/19 06:05:39;;;;;;;1.17;0.93;;;11.70;99.90;;;11.88;100.00;100686.41;5151689;28;20058;-72
2023/03/19 06:08:22;;;;;;;0.70;0.70;;;11.70;99.90;;;11.90;100.00;100689.94;5174999;28;20046;-72
2023/03/19 06:11:08;;;;;;;0.90;0.90;;;11.70;99.90;;;11.92;100.00;100689.13;5177882;28;20057;-71
2023/03/19 06:13:43;;;;;;;1.35;1.00;;;11.80;99.90;;;11.94;100.00;100697.03;5185584;28;20057;-72
2023/03/19 06:16:19;;;;;;;1.15;0.77;;;11.80;99.90;;;11.95;100.00;100691.84;5174337;28;20141;-72
2023/03/19 06:18:59;;;;;;;1.45;0.82;;;11.80;99.90;;;11.97;100.00;100697.09;5233520;23;20054;-66
2023/03/19 06:21:33;;;;;;;1.30;0.70;;;11.80;99.90;;;12.01;100.00;100696.34;5162211;28;20041;-66
2023/03/19 06:24:08;;;;;;;1.52;0.90;;;11.80;99.90;;;12.02;100.00;100698.13;5161846;28;20035;-66
2023/03/19 06:26:42;;;;;;;1.42;0.82;;;11.80;99.90;;;12.07;100.00;100706.09;5162183;28;20414;-66
2023/03/19 06:29:20;;;;;;;0.70;0.70;;;11.90;99.90;;;12.10;100.00;100701.81;5158578;28;20075;-67
2023/03/19 06:31:57;;;;;;;0.98;0.88;;;11.90;99.90;;;12.14;100.00;100706.31;5141754;28;20484;-67
2023/03/19 06:34:38;;;;;;;2.72;0.90;;;11.90;99.90;;;12.21;100.00;100702.13;5135751;28;20215;-65
2023/03/19 06:37:12;;;;;;;1.88;1.10;;;12.00;99.90;;;12.27;100.00;100702.28;5141525;28;20051;-66
2023/03/19 06:39:44;;;;;;;1.55;0.93;;;12.10;99.90;;;12.32;100.00;100702.38;5143109;28;20385;-67
2023/03/19 06:42:16;;;;;;;1.13;1.02;;;12.10;99.90;;;12.36;100.00;100715.59;5143192;28;20392;-65
2023/03/19 06:44:49;;;;;;;1.98;1.23;;;12.20;99.90;;;12.42;100.00;100722.72;5149770;28;20110;-66
2023/03/19 06:47:21;;;;;;;1.88;0.90;;;12.20;99.90;;;12.44;100.00;100721.00;5146573;28;20126;-67
2023/03/19 06:49:53;;;;;;;1.60;0.93;;;12.20;99.90;;;12.48;100.00;100717.63;5146762;28;20412;-66
2023/03/19 06:52:27;;;;;;;1.52;0.90;;;12.30;99.90;;;12.50;100.00;100722.03;5146919;28;20065;-68
2023/03/19 06:54:59;;;;;;;1.80;1.15;;;12.30;99.90;;;12.52;100.00;100718.59;5145944;28;20054;-67
2023/03/19 06:57:31;;;;;;;3.70;1.70;;;12.30;99.90;;;12.53;100.00;100729.09;5146679;28;20046;-67
2023/03/19 07:00:05;;;;;;;2.13;1.00;;;12.30;99.90;;;12.53;100.00;100723.88;5146770;28;20043;-66
2023/03/19 07:02:37;;;;;;;1.30;0.90;;;12.40;99.90;;;12.57;100.00;100730.94;5146963;28;20042;-65
2023/03/19 07:05:10;;;;;;;2.13;1.00;;;12.40;99.90;;;12.60;100.00;100732.75;5146005;28;20042;-58
2023/03/19 07:07:43;;;;;;;1.67;0.95;;;12.40;99.90;;;12.63;100.00;100732.81;5145903;28;20046;-58
2023/03/19 07:10:18;;;;;;;2.95;1.25;;;12.40;99.90;;;12.67;100.00;100740.78;5138123;28;20452;-60
2023/03/19 07:12:50;;;;;;;2.38;1.45;;;12.50;99.90;;;12.71;100.00;100737.44;5145582;28;20400;-59
2023/03/19 07:15:22;;;;;;;2.38;1.10;;;12.50;99.90;;;12.75;100.00;100749.72;5145584;28;20118;-59
2023/03/19 07:17:54;;;;;;;4.57;1.30;;;12.50;99.90;;;12.81;100.00;100754.22;5145523;28;20054;-58
2023/03/19 07:20:26;;;;;;;3.05;1.52;;;12.60;99.90;;;12.83;100.00;100756.88;5145434;28;20466;-58
2023/03/19 07:23:00;;;;;;;2.10;1.20;;;12.60;99.90;;;12.86;100.00;100754.34;5145458;28;20496;-59
2023/03/19 07:25:32;;;;;;;1.70;1.00;;;12.70;99.90;;;12.88;100.00;100750.91;5145454;28;20511;-59
2023/03/19 07:28:05;;;;;;;3.38;1.40;;;12.70;99.90;;;12.91;100.00;100760.53;5145481;28;20520;-59
2023/03/19 07:30:37;;;;;;;1.30;1.13;;;12.70;99.90;;;12.91;100.00;100765.78;5145465;28;20130;-59
2023/03/19 07:33:11;;;;;;;3.75;1.42;;;12.70;99.90;;;12.94;100.00;100765.88;5144949;28;20499;-58
2023/03/19 07:35:43;;;;;;;2.58;1.05;;;12.80;99.90;;;12.99;100.00;100761.66;5145100;28;20053;-59
2023/03/19 07:38:16;;;;;;;2.28;1.33;;;12.80;99.90;;;13.03;100.00;100768.69;5137356;28;20051;-58
2023/03/19 07:40:50;;;;;;;1.13;0.90;;;12.80;99.90;;;13.09;100.00;100768.84;5145081;28;20054;-59
2023/03/19 07:43:22;;;;;;;2.17;1.48;;;12.90;99.90;;;13.11;100.00;100772.41;5145080;28;20051;-59
2023/03/19 07:45:54;;;;;;;1.85;1.15;;;12.90;99.90;;;13.12;100.00;100771.56;5144570;28;20500;-58
2023/03/19 07:48:26;;;;;;;3.53;1.38;;;12.90;99.90;;;13.15;100.00;100765.50;5143918;28;20161;-58
2023/03/19 07:50:58;;;;;;;3.05;1.30;;;12.90;99.90;;;13.16;100.00;100768.16;5145122;28;20368;-59
2023/03/19 07:53:32;;;;;;;3.33;1.48;;;13.00;99.90;;;13.18;100.00;100768.22;5145229;28;20049;-59
2023/03/19 07:56:05;;;;;;;2.13;1.30;;;13.00;99.90;;;13.19;100.00;100768.25;5144132;28;20057;-59
2023/03/19 07:58:37;;;;;;;1.73;1.00;;;13.00;99.90;;;13.20;100.00;100764.81;5144420;28;20050;-59
2023/03/19 08:01:09;;;;;;;2.25;1.20;;;13.00;99.90;;;13.23;100.00;100764.88;5144788;28;20063;-59
2023/03/19 08:03:41;;;;;;;2.28;1.35;;;13.00;99.90;;;13.23;100.00;100764.88;5144928;28;20046;-60
2023/03/19 08:06:13;;;;;;;3.70;1.50;;;13.00;99.90;;;13.26;100.00;100759.72;5144371;28;20074;-58
2023/03/19 08:08:47;;;;;;;1.75;1.40;;;13.10;99.90;;;13.31;100.00;100767.69;5139394;28;20055;-58
2023/03/19 08:11:19;;;;;;;2.92;1.40;;;13.10;99.90;;;13.37;100.00;100759.09;5137688;28;20403;-59
2023/03/19 08:13:51;;;;;;;1.85;1.30;;;13.10;99.90;;;13.43;100.00;100765.34;5144372;28;20471;-59
2023/03/19 08:16:23;;;;;;;1.30;0.90;;;13.20;99.90;;;13.53;100.00;100751.59;5144682;28;20057;-59
2023/03/19 08:18:55;;;;;;;1.75;1.00;;;13.30;99.90;;;13.68;100.00;100769.38;5144111;28;20046;-60
2023/03/19 08:21:28;;;;;;;2.38;1.10;;;13.40;99.90;;;13.79;100.00;100760.00;5144709;28;20051;-58
2023/03/19 08:24:01;;;;;;;2.40;1.20;;;13.50;99.90;;;13.95;100.00;100763.81;5144207;28;20051;-59
2023/03/19 08:26:33;;;;;;;4.72;1.60;;;13.60;99.90;;;14.04;100.00;100760.53;5144156;28;20444;-59
2023/03/19 08:29:07;;;;;;;2.58;1.30;;;13.70;99.90;;;14.08;100.00;100770.19;5144305;28;20404;-59
2023/03/19 08:31:39;;;;;;;2.83;1.17;;;13.70;99.90;;;14.09;100.00;100766.75;5144565;28;20423;-58
2023/03/19 08:34:11;;;;;;;2.65;1.10;;;13.80;99.90;;;14.42;100.00;100776.13;5143740;28;20043;-57
2023/03/19 08:36:43;;;;;;;1.52;0.80;;;14.20;99.90;;;14.87;100.00;100776.09;5144148;28;20046;-57
2023/03/19 08:39:17;;;;;;;1.65;1.05;;;14.60;99.90;;;15.31;99.15;100779.44;5144116;28;20134;-58
2023/03/19 08:41:49;;;;;;;1.20;1.10;;;15.10;99.90;;;15.63;96.56;100786.94;5143803;28;20452;-53
2023/03/19 08:44:21;;;;;;;1.77;1.27;;;15.40;99.90;;;15.65;96.02;100790.50;5143965;28;20038;-53
2023/03/19 08:46:53;;;;;;;2.65;0.98;;;15.50;99.90;;;15.63;96.71;100794.81;5143537;28;20046;-54
2023/03/19 08:49:25;;;;;;;1.95;1.10;;;15.40;99.90;;;15.59;96.90;100795.63;5143927;28;20057;-53
2023/03/19 08:51:57;;;;;;;1.90;1.00;;;15.40;99.90;;;15.55;97.23;100799.06;5143686;28;20058;-54
2023/03/19 08:54:30;;;;;;;1.60;0.90;;;15.30;99.90;;;15.46;98.01;100799.81;5143447;28;20043;-54
2023/03/19 08:57:03;;;;;;;3.95;0.90;;;15.20;99.90;;;15.38;98.46;100802.28;5143478;28;20129;-54
2023/03/19 08:59:35;;;;;;;1.77;1.00;;;15.10;99.90;;;15.32;98.44;100801.31;5143796;28;20042;-54
2023/03/19 09:02:09;;;;;;;2.90;0.90;;;15.00;99.90;;;15.25;98.52;100797.72;5156749;28;20054;-54
2023/03/19 09:04:41;;;;;;;1.98;1.10;;;15.00;99.90;;;15.18;98.62;100799.34;5143281;28;20053;-54
2023/03/19 09:07:14;;;;;;;3.00;1.00;;;14.90;99.90;;;15.15;98.63;100803.69;5143556;28;20054;-54
2023/03/19 09:09:48;;;;;;;1.52;0.88;;;14.80;99.90;;;15.09;99.04;100807.09;5143791;28;20045;-54
2023/03/19 09:12:20;;;;;;;1.48;0.90;;;14.80;99.90;;;15.04;99.55;100807.88;5135835;28;20089;-54
2023/03/19 09:14:52;;;;;;;2.28;1.40;;;14.70;99.90;;;14.97;99.40;100814.75;5143032;28;20043;-55
2023/03/19 09:17:24;;;;;;;4.28;1.52;;;14.70;99.90;;;14.90;99.61;100805.00;5143284;28;20061;-53
2023/03/19 09:19:57;;;;;;;1.45;1.15;;;14.60;99.90;;;14.84;99.91;100808.41;5143260;28;20051;-54
2023/03/19 09:22:29;;;;;;;1.90;1.10;;;14.60;99.90;;;14.78;100.00;100803.06;5143577;28;20077;-54
2023/03/19 09:25:02;;;;;;;2.20;1.08;;;14.50;99.90;;;14.72;100.00;100813.44;5142965;28;20047;-54
2023/03/19 09:27:35;;;;;;;2.20;0.95;;;14.50;99.90;;;14.69;100.00;100808.16;5143662;28;20039;-54
2023/03/19 09:30:09;;;;;;;3.00;1.33;;;14.50;99.90;;;14.61;100.00;100815.88;5143363;28;20062;-54
2023/03/19 09:32:41;;;;;;;1.95;1.35;;;14.40;99.90;;;14.60;100.00;100807.97;5143211;28;20499;-55
2023/03/19 09:35:14;;;;;;;2.03;1.10;;;14.40;99.90;;;14.62;100.00;100814.13;5142837;28;20043;-54
2023/03/19 09:37:47;;;;;;;2.17;1.35;;;14.30;99.90;;;14.61;100.00;100815.00;5143555;28;20035;-54
2023/03/19 09:40:27;;;;;;;1.27;1.17;;;14.40;99.90;;;14.60;100.00;100816.72;5142952;28;20500;-54
2023/03/19 09:43:28;;;;;;;2.00;1.30;;;14.30;99.90;;;14.62;100.00;100822.00;5143010;28;20043;-54
2023/03/19 09:46:06;;;;;;;1.85;1.20;;;14.30;99.90;;;14.66;100.00;100824.69;5142736;28;20395;-54
2023/03/19 09:48:45;;;;;;;1.52;1.00;;;14.40;99.90;;;14.69;100.00;100826.50;5142842;28;20042;-54
2023/03/19 09:51:23;;;;;;;2.60;1.30;;;14.40;99.90;;;14.70;100.00;100830.03;5143014;28;20042;-55
2023/03/19 09:54:00;;;;;;;3.25;1.27;;;14.40;99.90;;;14.73;100.00;100824.81;5142820;28;20043;-54
2023/03/19 09:56:33;;;;;;;1.98;1.40;;;14.40;99.90;;;14.69;100.00;100828.25;5143251;28;20042;-54
2023/03/19 09:59:08;;;;;;;2.80;1.40;;;14.40;99.90;;;14.72;100.00;100829.19;5142737;28;20374;-53
2023/03/19 10:01:52;;;;;;;2.08;1.13;;;14.40;99.90;;;14.75;100.00;100829.25;5143167;28;20190;-54
2023/03/19 10:04:41;;;;;;;2.38;1.60;;;14.50;99.90;;;14.83;100.00;100834.63;5135253;28;20046;-54
2023/03/19 10:07:29;;;;;;;1.60;1.30;;;14.50;99.90;;;14.87;100.00;100839.97;5142635;28;20491;-54
2023/03/19 10:10:20;;;;;;;1.48;1.23;;;14.50;99.90;;;14.93;100.00;100833.94;5142674;28;20455;-54
2023/03/19 10:13:02;;;;;;;2.38;1.30;;;14.60;99.90;;;14.97;100.00;100840.13;5142482;28;20042;-54
2023/03/19 10:15:37;;;;;;;3.65;1.60;;;14.60;99.90;;;15.02;100.00;100841.97;5141558;28;20046;-54
2023/03/19 10:18:16;;;;;;;2.35;1.50;;;14.70;99.90;;;15.03;100.00;100845.50;5142689;28;20054;-54
2023/03/19 10:20:55;;;;;;;1.60;1.35;;;14.70;99.90;;;15.03;100.00;100848.09;5144679;28;20042;-54
2023/03/19 10:23:44;;;;;;;1.50;1.23;;;14.70;99.90;;;14.97;100.00;100837.50;5139534;28;20514;-54
2023/03/19 10:26:19;;;;;;;5.88;3.83;;;14.70;99.90;;;15.04;100.00;100842.00;5146411;28;20035;-55
2023/03/19 10:29:08;;;;;;;;;;;14.70;99.90;;;15.09;100.00;100841.22;5147394;28;20105;-55
2023/03/19 10:31:49;;;;;;;7.15;3.47;;;14.70;99.90;;;15.20;100.00;100844.94;5141015;28;19928;-54
2023/03/19 10:34:33;;;;;;;3.00;2.20;;;14.80;99.90;;;15.37;100.00;100842.56;5146199;28;20139;-55
2023/03/19 10:37:15;;;;;;;2.30;1.70;;;15.00;99.90;;;15.49;100.00;100844.50;5146046;28;20042;-54
2023/03/19 10:39:49;;;;;;;2.60;1.75;;;15.10;99.90;;;15.83;100.00;100848.53;5146244;28;20070;-54
2023/03/19 10:42:40;;;;;;;1.77;1.40;;;15.30;99.90;;;15.98;99.02;100840.88;5146322;28;20047;-54